Time;durP1;ratioP1;P1;durP2;ratioP2;P2;SDS_P1;SDS_P2;PMS_P1;PMS_P2;Temp;Humidity;BMP_temperature;BMP_pressure;BME280_temperature;BME280_humidity;BME280_pressure;Samples;Min_cycle;Max_cycle;Signal;HPM_P1;HPM_P2
2020/12/04 00:01:43;;;;;;;21.77;10.02;;;;;;;;;;5051977;28;20021;-75
2020/12/04 00:04:09;;;;;;;20.75;10.20;;;;;;;;;;5052189;28;20029;-75
2020/12/04 00:06:35;;;;;;;23.20;10.93;;;;;;;;;;5052086;28;20415;-73
2020/12/04 00:09:01;;;;;;;22.73;10.90;;;;;;;;;;5052178;28;20024;-73
2020/12/04 00:11:28;;;;;;;25.17;11.90;;;;;;;;;;5051980;28;20036;-76
2020/12/04 00:13:54;;;;;;;21.90;10.95;;;;;;;;;;5052018;28;20079;-73
2020/12/04 00:16:20;;;;;;;24.27;12.07;;;;;;;;;;5052062;28;20099;-72
2020/12/04 00:18:46;;;;;;;27.25;12.02;;;;;;;;;;5051711;28;20025;-74
2020/12/04 00:21:12;;;;;;;29.15;13.40;;;;;;;;;;5051931;28;20025;-73
2020/12/04 00:23:39;;;;;;;25.23;12.52;;;;;;;;;;5051683;28;20035;-73
2020/12/04 00:26:05;;;;;;;32.78;13.52;;;;;;;;;;5051871;28;20032;-72
2020/12/04 00:28:31;;;;;;;25.92;12.45;;;;;;;;;;5051884;28;20025;-72
2020/12/04 00:30:57;;;;;;;26.83;12.18;;;;;;;;;;5051896;28;20021;-73
2020/12/04 00:33:23;;;;;;;27.00;12.50;;;;;;;;;;5051983;28;20029;-75
2020/12/04 00:35:49;;;;;;;25.38;12.07;;;;;;;;;;5051677;28;20025;-73
2020/12/04 00:38:15;;;;;;;30.10;13.70;;;;;;;;;;5051731;28;20021;-73
2020/12/04 00:40:41;;;;;;;25.50;13.15;;;;;;;;;;5051696;28;20026;-76
2020/12/04 00:43:07;;;;;;;32.10;13.38;;;;;;;;;;5051677;28;20040;-76
2020/12/04 00:45:33;;;;;;;29.15;13.00;;;;;;;;;;5051601;28;20121;-72
2020/12/04 00:47:59;;;;;;;29.80;13.40;;;;;;;;;;5052227;28;20035;-72
2020/12/04 00:50:25;;;;;;;22.63;9.75;;;;;;;;;;5051569;28;20017;-72
2020/12/04 00:52:53;;;;;;;30.40;13.63;;;;;;;;;;5049516;28;20024;-73
2020/12/04 00:55:19;;;;;;;29.85;14.38;;;;;;;;;;5049923;28;20074;-72
2020/12/04 00:57:45;;;;;;;28.20;13.65;;;;;;;;;;5054760;28;20017;-72
2020/12/04 01:00:11;;;;;;;28.10;13.70;;;;;;;;;;5071348;28;20055;-72
2020/12/04 01:02:37;;;;;;;30.42;13.63;;;;;;;;;;5071467;28;20078;-72
2020/12/04 01:05:03;;;;;;;29.92;14.27;;;;;;;;;;5071516;28;20024;-72
2020/12/04 01:07:30;;;;;;;31.58;14.18;;;;;;;;;;5071738;28;20013;-72
2020/12/04 01:09:56;;;;;;;34.90;15.02;;;;;;;;;;5071336;28;20025;-74
2020/12/04 01:12:22;;;;;;;28.77;14.15;;;;;;;;;;5071252;28;20349;-72
2020/12/04 01:14:48;;;;;;;28.38;14.38;;;;;;;;;;5071294;28;20035;-72
2020/12/04 01:17:15;;;;;;;29.85;13.93;;;;;;;;;;5071378;28;20017;-71
2020/12/04 01:19:41;;;;;;;30.50;13.75;;;;;;;;;;5071450;28;20025;-72
2020/12/04 01:22:07;;;;;;;31.98;13.65;;;;;;;;;;5070114;28;20120;-73
2020/12/04 01:24:33;;;;;;;27.80;13.07;;;;;;;;;;5071353;28;20033;-72
2020/12/04 01:26:59;;;;;;;30.52;13.57;;;;;;;;;;5072092;28;20013;-73
2020/12/04 01:29:25;;;;;;;31.73;14.63;;;;;;;;;;5074999;28;20039;-72
2020/12/04 01:31:51;;;;;;;32.08;15.13;;;;;;;;;;5075187;28;20057;-72
2020/12/04 01:34:17;;;;;;;31.70;14.25;;;;;;;;;;5075029;28;20031;-72
2020/12/04 01:36:43;;;;;;;29.27;13.23;;;;;;;;;;5074891;28;20048;-74
2020/12/04 01:39:09;;;;;;;25.85;12.73;;;;;;;;;;5074906;28;20023;-72
2020/12/04 01:41:36;;;;;;;17.65;7.07;;;;;;;;;;5074782;28;20036;-72
2020/12/04 01:44:04;;;;;;;23.33;11.02;;;;;;;;;;5074437;28;20043;-75
2020/12/04 01:46:30;;;;;;;24.65;11.13;;;;;;;;;;5075112;28;20036;-72
2020/12/04 01:48:56;;;;;;;32.15;11.55;;;;;;;;;;5075095;28;20033;-72
2020/12/04 01:51:22;;;;;;;23.15;10.55;;;;;;;;;;5074795;28;20059;-73
2020/12/04 01:53:50;;;;;;;25.60;11.63;;;;;;;;;;5074820;28;20068;-72
2020/12/04 01:56:17;;;;;;;26.05;11.65;;;;;;;;;;5074690;28;20023;-72
2020/12/04 01:58:43;;;;;;;22.17;10.07;;;;;;;;;;5074146;28;20043;-72
2020/12/04 02:01:12;;;;;;;24.92;11.50;;;;;;;;;;5074496;28;20028;-73
2020/12/04 02:03:38;;;;;;;20.63;9.98;;;;;;;;;;5074428;28;20075;-72
2020/12/04 02:06:06;;;;;;;23.48;11.05;;;;;;;;;;5074300;28;20024;-73
2020/12/04 02:08:32;;;;;;;24.30;11.05;;;;;;;;;;5074098;28;20504;-72
2020/12/04 02:11:12;;;;;;;21.98;10.98;;;;;;;;;;5073067;28;20024;-72
2020/12/04 02:13:40;;;;;;;22.20;10.63;;;;;;;;;;5072741;28;20020;-72
2020/12/04 02:16:06;;;;;;;19.73;10.10;;;;;;;;;;5074233;28;20020;-74
2020/12/04 02:18:36;;;;;;;20.50;10.55;;;;;;;;;;5074429;28;20086;-73
2020/12/04 02:21:02;;;;;;;21.52;9.80;;;;;;;;;;5072755;28;20025;-73
2020/12/04 02:23:29;;;;;;;23.10;10.68;;;;;;;;;;5074526;28;20426;-73
2020/12/04 02:25:56;;;;;;;22.40;9.95;;;;;;;;;;5073684;28;20032;-73
2020/12/04 02:28:36;;;;;;;20.33;9.48;;;;;;;;;;5072434;28;20029;-73
2020/12/04 02:31:02;;;;;;;21.83;10.35;;;;;;;;;;5072502;28;20555;-73
2020/12/04 02:33:28;;;;;;;22.35;11.32;;;;;;;;;;5074263;28;20077;-72
2020/12/04 02:35:55;;;;;;;20.85;10.10;;;;;;;;;;5074056;28;20039;-73
2020/12/04 02:38:21;;;;;;;19.08;8.88;;;;;;;;;;5062564;28;20029;-73
2020/12/04 02:40:48;;;;;;;19.73;8.38;;;;;;;;;;5052940;28;20079;-74
2020/12/04 02:43:14;;;;;;;19.73;8.93;;;;;;;;;;5053502;28;20044;-73
2020/12/04 02:45:40;;;;;;;17.33;8.73;;;;;;;;;;5053095;28;20052;-72
2020/12/04 02:48:06;;;;;;;19.92;8.75;;;;;;;;;;5053628;28;20523;-73
2020/12/04 02:50:32;;;;;;;16.88;8.80;;;;;;;;;;5053512;28;20120;-73
2020/12/04 02:52:58;;;;;;;20.55;9.35;;;;;;;;;;5053729;28;20028;-76
2020/12/04 02:55:24;;;;;;;20.15;9.45;;;;;;;;;;5052923;28;20028;-73
2020/12/04 02:57:50;;;;;;;16.95;9.15;;;;;;;;;;5053598;28;20067;-73
2020/12/04 03:00:16;;;;;;;19.27;9.23;;;;;;;;;;5053044;28;20041;-77
2020/12/04 03:02:42;;;;;;;16.65;8.73;;;;;;;;;;5053310;28;20079;-74
2020/12/04 03:05:08;;;;;;;19.40;9.88;;;;;;;;;;5053213;28;20469;-73
2020/12/04 03:07:36;;;;;;;18.80;9.30;;;;;;;;;;5053284;28;20028;-73
2020/12/04 03:10:03;;;;;;;19.10;10.23;;;;;;;;;;5052920;28;20021;-73
2020/12/04 03:12:29;;;;;;;18.25;9.07;;;;;;;;;;5053029;28;20032;-73
2020/12/04 03:14:55;;;;;;;19.83;10.00;;;;;;;;;;5053027;28;20082;-73
2020/12/04 03:17:21;;;;;;;17.27;6.65;;;;;;;;;;5053198;28;20420;-75
2020/12/04 03:19:47;;;;;;;17.50;8.88;;;;;;;;;;5053210;28;20475;-73
2020/12/04 03:22:13;;;;;;;20.02;10.00;;;;;;;;;;5052615;28;20033;-74
2020/12/04 03:24:39;;;;;;;18.30;9.35;;;;;;;;;;5052993;28;20040;-77
2020/12/04 03:27:05;;;;;;;19.35;9.48;;;;;;;;;;5053229;28;20028;-73
2020/12/04 03:29:31;;;;;;;21.88;10.00;;;;;;;;;;5053209;28;20492;-73
2020/12/04 03:31:57;;;;;;;18.63;8.65;;;;;;;;;;5052569;28;20023;-72
2020/12/04 03:34:23;;;;;;;17.70;8.32;;;;;;;;;;5051308;28;20128;-75
2020/12/04 03:36:49;;;;;;;17.30;9.38;;;;;;;;;;5052746;28;20028;-73
2020/12/04 03:39:15;;;;;;;17.40;9.05;;;;;;;;;;5052559;28;20029;-77
2020/12/04 03:41:41;;;;;;;22.40;9.98;;;;;;;;;;5051581;28;20108;-76
2020/12/04 03:44:07;;;;;;;19.10;9.63;;;;;;;;;;5052213;28;20035;-75
2020/12/04 03:46:33;;;;;;;18.48;9.20;;;;;;;;;;5051392;28;20025;-73
2020/12/04 03:48:59;;;;;;;17.65;9.13;;;;;;;;;;5052837;28;20427;-73
2020/12/04 03:51:25;;;;;;;19.88;9.65;;;;;;;;;;5050904;28;20362;-76
2020/12/04 03:53:51;;;;;;;24.10;8.68;;;;;;;;;;5054399;28;20377;-73
2020/12/04 03:56:17;;;;;;;19.52;8.82;;;;;;;;;;5072240;28;20468;-73
2020/12/04 03:58:43;;;;;;;21.38;9.73;;;;;;;;;;5071890;28;20362;-73
2020/12/04 04:01:09;;;;;;;22.45;9.13;;;;;;;;;;5072221;28;20040;-73
2020/12/04 04:03:36;;;;;;;18.50;8.90;;;;;;;;;;5072246;28;20040;-73
2020/12/04 04:06:02;;;;;;;19.40;9.60;;;;;;;;;;5072221;28;20028;-73
2020/12/04 04:08:28;;;;;;;21.20;9.68;;;;;;;;;;5072032;28;20427;-75
2020/12/04 04:10:54;;;;;;;18.55;9.52;;;;;;;;;;5071425;28;20376;-73
2020/12/04 04:13:20;;;;;;;17.17;8.25;;;;;;;;;;5052246;28;20048;-75
2020/12/04 04:15:46;;;;;;;19.98;8.93;;;;;;;;;;5051365;28;20021;-72
2020/12/04 04:18:12;;;;;;;19.83;9.50;;;;;;;;;;5052104;28;20427;-72
2020/12/04 04:20:38;;;;;;;18.05;8.57;;;;;;;;;;5052138;28;20377;-72
2020/12/04 04:23:04;;;;;;;19.77;8.57;;;;;;;;;;5052104;28;20418;-72
2020/12/04 04:25:30;;;;;;;20.65;8.50;;;;;;;;;;5052629;28;20376;-73
2020/12/04 04:27:56;;;;;;;25.23;9.85;;;;;;;;;;5051634;28;20037;-71
2020/12/04 04:30:22;;;;;;;25.52;9.60;;;;;;;;;;5051991;28;20021;-72
2020/12/04 04:32:48;;;;;;;19.42;8.93;;;;;;;;;;5065736;28;20021;-71
2020/12/04 04:35:14;;;;;;;19.77;9.25;;;;;;;;;;5072061;28;20036;-72
2020/12/04 04:37:42;;;;;;;20.73;8.38;;;;;;;;;;5071854;28;20024;-72
2020/12/04 04:40:08;;;;;;;17.90;8.75;;;;;;;;;;5071826;28;20025;-71
2020/12/04 04:42:34;;;;;;;18.67;9.60;;;;;;;;;;5071516;28;20044;-72
2020/12/04 04:45:02;;;;;;;20.55;10.23;;;;;;;;;;5071186;28;20031;-72
2020/12/04 04:47:31;;;;;;;22.00;9.95;;;;;;;;;;5072153;28;20024;-72
2020/12/04 04:49:57;;;;;;;21.77;9.77;;;;;;;;;;5071998;28;20043;-72
2020/12/04 04:52:25;;;;;;;23.98;9.13;;;;;;;;;;5071708;28;20040;-72
2020/12/04 04:54:51;;;;;;;16.60;7.85;;;;;;;;;;5072062;28;20029;-74
2020/12/04 04:57:21;;;;;;;19.05;8.30;;;;;;;;;;5071838;28;20473;-72
2020/12/04 04:59:47;;;;;;;17.13;9.13;;;;;;;;;;5072076;28;20049;-72
2020/12/04 05:02:14;;;;;;;19.15;8.35;;;;;;;;;;5072670;28;20198;-72
2020/12/04 05:04:56;;;;;;;21.35;9.10;;;;;;;;;;5075831;28;20035;-72
2020/12/04 05:07:26;;;;;;;17.63;8.82;;;;;;;;;;5075592;28;20078;-73
2020/12/04 05:09:53;;;;;;;17.27;9.13;;;;;;;;;;5075806;28;20021;-73
2020/12/04 05:12:19;;;;;;;18.92;8.20;;;;;;;;;;5074353;28;20161;-72
2020/12/04 05:14:45;;;;;;;18.20;8.85;;;;;;;;;;5075364;28;20036;-73
2020/12/04 05:17:11;;;;;;;21.85;10.18;;;;;;;;;;5075609;28;20605;-74
2020/12/04 05:19:38;;;;;;;20.63;10.63;;;;;;;;;;5074086;28;20074;-76
2020/12/04 05:22:11;;;;;;;19.80;8.82;;;;;;;;;;5075641;28;20032;-73
2020/12/04 05:24:38;;;;;;;21.10;9.52;;;;;;;;;;5075596;28;20081;-75
2020/12/04 05:27:22;;;;;;;20.90;10.15;;;;;;;;;;5075606;28;20024;-74
2020/12/04 05:29:48;;;;;;;;;;;;;;;;;;5075740;28;20384;-77
2020/12/04 05:32:17;;;;;;;55.20;23.98;;;;;;;;;;5075232;28;19908;-75
2020/12/04 05:34:43;;;;;;;38.33;16.08;;;;;;;;;;5075169;28;20025;-77
2020/12/04 05:37:10;;;;;;;32.97;14.48;;;;;;;;;;5075252;28;20028;-74
2020/12/04 05:39:47;;;;;;;20.92;10.35;;;;;;;;;;5075068;28;20038;-73
2020/12/04 05:42:29;;;;;;;48.10;16.85;;;;;;;;;;5073661;28;20507;-73
2020/12/04 05:44:55;;;;;;;188.10;60.92;;;;;;;;;;5075206;28;20021;-74
2020/12/04 05:47:22;;;;;;;23.40;10.48;;;;;;;;;;5075054;28;20044;-73
2020/12/04 05:49:48;;;;;;;20.77;9.52;;;;;;;;;;5075200;28;20020;-76
2020/12/04 05:52:14;;;;;;;17.40;9.25;;;;;;;;;;5073888;28;20392;-73
2020/12/04 05:54:42;;;;;;;21.77;9.20;;;;;;;;;;5038230;28;20033;-73
2020/12/04 05:57:09;;;;;;;29.23;14.18;;;;;;;;;;5049165;28;20547;-73
2020/12/04 05:59:36;;;;;;;25.35;11.90;;;;;;;;;;5048398;28;20409;-73
2020/12/04 06:02:02;;;;;;;25.70;11.30;;;;;;;;;;5052531;28;20473;-75
2020/12/04 06:04:29;;;;;;;34.88;15.68;;;;;;;;;;5055014;28;20028;-73
2020/12/04 06:06:55;;;;;;;20.02;9.77;;;;;;;;;;5053755;28;20028;-74
2020/12/04 06:09:22;;;;;;;19.13;8.38;;;;;;;;;;5054644;28;20112;-73
2020/12/04 06:11:48;;;;;;;22.23;10.32;;;;;;;;;;5054665;28;20493;-75
2020/12/04 06:14:14;;;;;;;23.05;10.57;;;;;;;;;;5054454;28;20039;-73
2020/12/04 06:16:40;;;;;;;25.40;10.73;;;;;;;;;;5054608;28;20419;-73
2020/12/04 06:19:30;;;;;;;19.58;10.05;;;;;;;;;;5054521;28;20358;-73
2020/12/04 06:22:03;;;;;;;24.10;10.98;;;;;;;;;;5048799;28;20044;-72
2020/12/04 06:24:29;;;;;;;23.77;10.00;;;;;;;;;;5054265;28;20021;-73
2020/12/04 06:26:55;;;;;;;21.83;10.43;;;;;;;;;;5050635;28;20029;-74
2020/12/04 06:29:21;;;;;;;10.35;5.20;;;;;;;;;;5031864;28;20025;-73
2020/12/04 06:31:48;;;;;;;20.27;8.65;;;;;;;;;;5031911;28;20025;-72
2020/12/04 06:34:20;;;;;;;22.30;10.32;;;;;;;;;;5031710;28;20026;-71
2020/12/04 06:36:47;;;;;;;19.33;9.02;;;;;;;;;;5031971;28;20381;-73
2020/12/04 06:39:33;;;;;;;18.70;9.05;;;;;;;;;;5031618;28;20022;-71
2020/12/04 06:42:00;;;;;;;20.40;10.10;;;;;;;;;;5031970;28;20112;-71
2020/12/04 06:44:27;;;;;;;23.83;11.20;;;;;;;;;;5031622;28;20540;-71
2020/12/04 06:46:55;;;;;;;21.95;9.98;;;;;;;;;;5031641;28;20112;-72
2020/12/04 06:51:59;;;;;;;26.60;11.00;;;;;;;;;;5031738;28;20037;-71
2020/12/04 06:54:26;;;;;;;24.20;10.93;;;;;;;;;;5030116;28;20665;-70
2020/12/04 06:56:53;;;;;;;21.35;9.50;;;;;;;;;;5031512;28;20386;-71
2020/12/04 06:59:23;;;;;;;22.30;11.93;;;;;;;;;;5042307;28;20044;-72
2020/12/04 07:01:50;;;;;;;19.92;8.38;;;;;;;;;;5049956;28;20461;-71
2020/12/04 07:04:16;;;;;;;23.88;10.30;;;;;;;;;;5050774;28;20033;-71
2020/12/04 07:06:42;;;;;;;23.63;10.18;;;;;;;;;;5051294;28;20025;-75
2020/12/04 07:09:09;;;;;;;17.27;8.02;;;;;;;;;;5051098;28;20408;-73
2020/12/04 07:11:36;;;;;;;25.58;11.00;;;;;;;;;;5051424;28;20483;-71
2020/12/04 07:14:03;;;;;;;22.20;8.55;;;;;;;;;;5051589;28;20029;-71
2020/12/04 07:16:29;;;;;;;24.52;10.93;;;;;;;;;;5050073;28;20133;-72
2020/12/04 07:18:55;;;;;;;21.80;10.13;;;;;;;;;;5053530;28;20021;-72
2020/12/04 07:21:21;;;;;;;24.77;11.02;;;;;;;;;;5053435;28;20487;-73
2020/12/04 07:23:48;;;;;;;33.72;11.73;;;;;;;;;;5053278;28;20083;-76
2020/12/04 07:26:19;;;;;;;24.98;11.07;;;;;;;;;;5052719;28;20029;-72
2020/12/04 07:28:45;;;;;;;16.58;8.55;;;;;;;;;;5053374;28;20025;-71
2020/12/04 07:31:19;;;;;;;25.73;11.43;;;;;;;;;;5052649;28;20021;-76
2020/12/04 07:33:52;;;;;;;47.63;20.02;;;;;;;;;;5052941;28;20044;-72
2020/12/04 07:36:18;;;;;;;30.92;12.45;;;;;;;;;;5052956;28;20029;-77
2020/12/04 07:38:55;;;;;;;37.75;17.23;;;;;;;;;;5053056;28;20381;-71
2020/12/04 07:41:25;;;;;;;26.63;12.75;;;;;;;;;;5052999;28;20021;-77
2020/12/04 07:43:51;;;;;;;26.20;12.05;;;;;;;;;;5052889;28;20037;-72
2020/12/04 07:46:20;;;;;;;26.65;11.60;;;;;;;;;;5052986;28;20029;-72
2020/12/04 07:48:59;;;;;;;17.73;7.47;;;;;;;;;;5052924;28;20495;-73
2020/12/04 07:51:27;;;;;;;22.70;11.00;;;;;;;;;;5051720;28;20061;-74
2020/12/04 07:53:55;;;;;;;26.75;11.30;;;;;;;;;;5053073;28;20017;-76
2020/12/04 07:56:23;;;;;;;21.05;10.98;;;;;;;;;;5052943;28;20070;-71
2020/12/04 07:58:52;;;;;;;24.65;11.52;;;;;;;;;;5052290;28;20099;-76
2020/12/04 08:01:18;;;;;;;19.85;9.02;;;;;;;;;;5052810;28;20385;-80
2020/12/04 08:03:48;;;;;;;25.05;10.32;;;;;;;;;;5052524;28;20064;-72
2020/12/04 08:06:15;;;;;;;25.90;11.75;;;;;;;;;;5051427;28;20044;-72
2020/12/04 08:08:41;;;;;;;25.23;11.23;;;;;;;;;;5049426;28;20028;-72
2020/12/04 08:11:11;;;;;;;25.50;11.45;;;;;;;;;;5050843;28;20028;-72
2020/12/04 08:13:39;;;;;;;26.80;11.40;;;;;;;;;;5051480;28;20025;-73
2020/12/04 08:16:08;;;;;;;27.00;11.55;;;;;;;;;;5050647;28;20030;-72
2020/12/04 08:18:35;;;;;;;26.42;12.73;;;;;;;;;;5052024;28;20108;-71
2020/12/04 08:21:07;;;;;;;19.98;9.38;;;;;;;;;;5052601;28;20052;-74
2020/12/04 08:23:33;;;;;;;23.70;10.65;;;;;;;;;;5052685;28;20041;-72
2020/12/04 08:25:59;;;;;;;27.13;11.85;;;;;;;;;;5052682;28;20017;-76
2020/12/04 08:28:25;;;;;;;19.98;9.93;;;;;;;;;;5052493;28;20033;-72
2020/12/04 08:30:51;;;;;;;35.30;14.82;;;;;;;;;;5052533;28;20381;-75
2020/12/04 08:33:17;;;;;;;25.75;11.80;;;;;;;;;;5052537;28;20090;-77
2020/12/04 08:35:44;;;;;;;22.88;10.32;;;;;;;;;;5052269;28;20116;-74
2020/12/04 08:38:12;;;;;;;24.63;11.18;;;;;;;;;;5051621;28;20112;-73
2020/12/04 08:40:39;;;;;;;21.50;9.70;;;;;;;;;;5052332;28;20096;-72
2020/12/04 08:43:13;;;;;;;65.75;25.38;;;;;;;;;;5052369;28;20024;-73
2020/12/04 08:45:44;;;;;;;20.95;10.60;;;;;;;;;;5051164;28;20071;-76
2020/12/04 08:48:11;;;;;;;24.67;10.93;;;;;;;;;;5052288;28;20029;-75
2020/12/04 08:50:42;;;;;;;24.40;11.45;;;;;;;;;;5052253;28;20029;-74
2020/12/04 08:53:09;;;;;;;27.33;13.30;;;;;;;;;;5052203;28;20071;-73
2020/12/04 08:55:36;;;;;;;21.25;10.57;;;;;;;;;;5052298;28;20118;-73
2020/12/04 08:58:02;;;;;;;23.38;11.15;;;;;;;;;;5052392;28;20029;-73
2020/12/04 09:00:30;;;;;;;23.33;11.18;;;;;;;;;;5052119;28;20520;-73
2020/12/04 09:02:57;;;;;;;26.20;11.57;;;;;;;;;;5052010;28;20044;-73
2020/12/04 09:05:23;;;;;;;29.73;12.02;;;;;;;;;;5052148;28;20017;-73
2020/12/04 09:07:49;;;;;;;23.77;12.00;;;;;;;;;;5052154;28;20054;-73
2020/12/04 09:10:16;;;;;;;24.75;10.82;;;;;;;;;;5052003;28;20543;-73
2020/12/04 09:12:42;;;;;;;23.45;11.18;;;;;;;;;;5052058;28;20025;-73
2020/12/04 09:15:10;;;;;;;23.55;11.07;;;;;;;;;;5049790;28;20100;-73
2020/12/04 09:17:36;;;;;;;22.98;10.82;;;;;;;;;;5049506;28;20388;-73
2020/12/04 09:20:03;;;;;;;27.10;10.85;;;;;;;;;;5052207;28;20029;-74
2020/12/04 09:22:29;;;;;;;25.27;12.20;;;;;;;;;;5052045;28;20025;-74
2020/12/04 09:24:56;;;;;;;25.15;11.50;;;;;;;;;;5051933;28;20097;-75
2020/12/04 09:27:22;;;;;;;22.33;11.75;;;;;;;;;;5051909;28;20025;-74
2020/12/04 09:29:48;;;;;;;25.67;11.82;;;;;;;;;;5051878;28;20028;-74
2020/12/04 09:32:15;;;;;;;58.75;26.48;;;;;;;;;;5051734;28;20021;-72
2020/12/04 09:34:42;;;;;;;50.78;26.40;;;;;;;;;;5051854;28;20028;-73
2020/12/04 09:37:19;;;;;;;29.23;12.55;;;;;;;;;;5051941;28;20024;-72
2020/12/04 09:39:46;;;;;;;24.20;11.98;;;;;;;;;;5051899;28;20032;-74
2020/12/04 09:42:16;;;;;;;26.27;12.10;;;;;;;;;;5050459;28;20017;-73
2020/12/04 09:44:42;;;;;;;24.70;11.18;;;;;;;;;;5051754;28;20033;-73
2020/12/04 09:47:08;;;;;;;26.58;11.88;;;;;;;;;;5051832;28;20021;-74
2020/12/04 09:49:35;;;;;;;28.13;12.93;;;;;;;;;;5054655;28;20047;-73
2020/12/04 09:52:01;;;;;;;22.58;10.38;;;;;;;;;;5055498;28;20381;-72
2020/12/04 09:54:28;;;;;;;21.13;10.30;;;;;;;;;;5055297;28;20036;-74
2020/12/04 09:56:55;;;;;;;22.48;10.25;;;;;;;;;;5055269;28;20025;-73
2020/12/04 09:59:24;;;;;;;14.15;7.57;;;;;;;;;;5054938;28;20044;-73
2020/12/04 10:01:51;;;;;;;17.67;9.15;;;;;;;;;;5055068;28;20028;-72
2020/12/04 10:04:18;;;;;;;21.08;8.57;;;;;;;;;;5054754;28;20037;-72
2020/12/04 10:06:45;;;;;;;20.08;10.02;;;;;;;;;;5054841;28;20335;-73
2020/12/04 10:09:11;;;;;;;22.27;9.38;;;;;;;;;;5054974;28;20028;-73
2020/12/04 10:11:37;;;;;;;19.75;10.20;;;;;;;;;;5054748;28;20032;-75
2020/12/04 10:14:03;;;;;;;17.63;8.63;;;;;;;;;;5053539;28;20397;-75
2020/12/04 10:16:29;;;;;;;25.10;12.50;;;;;;;;;;5053728;28;20029;-72
2020/12/04 10:18:57;;;;;;;33.90;14.98;;;;;;;;;;5053471;28;20079;-73
2020/12/04 10:21:23;;;;;;;53.25;23.98;;;;;;;;;;5054767;28;20116;-72
2020/12/04 10:23:49;;;;;;;17.73;7.95;;;;;;;;;;5054550;28;20029;-72
2020/12/04 10:26:16;;;;;;;23.83;11.07;;;;;;;;;;5054469;28;20120;-72
2020/12/04 10:28:42;;;;;;;26.80;11.75;;;;;;;;;;5054542;28;20057;-72
2020/12/04 10:31:08;;;;;;;24.75;11.88;;;;;;;;;;5067768;28;20113;-72
2020/12/04 10:33:34;;;;;;;17.15;7.80;;;;;;;;;;5074454;28;20476;-72
2020/12/04 10:36:03;;;;;;;21.17;9.70;;;;;;;;;;5073335;28;20062;-71
2020/12/04 10:38:29;;;;;;;66.97;25.50;;;;;;;;;;5074462;28;20372;-72
2020/12/04 10:40:55;;;;;;;32.92;14.98;;;;;;;;;;5074256;28;20021;-72
2020/12/04 10:43:21;;;;;;;25.20;11.13;;;;;;;;;;5074256;28;20043;-72
2020/12/04 10:45:48;;;;;;;23.77;10.23;;;;;;;;;;5074287;28;20017;-75
2020/12/04 10:48:14;;;;;;;15.93;8.13;;;;;;;;;;5074096;28;20029;-71
2020/12/04 10:50:40;;;;;;;20.48;9.02;;;;;;;;;;5074135;28;20388;-72
2020/12/04 10:53:06;;;;;;;18.58;9.80;;;;;;;;;;5074183;28;20020;-72
2020/12/04 10:55:32;;;;;;;19.13;8.52;;;;;;;;;;5074011;28;20384;-72
2020/12/04 10:57:58;;;;;;;19.05;8.57;;;;;;;;;;5074242;28;20020;-70
2020/12/04 11:00:24;;;;;;;20.33;9.60;;;;;;;;;;5072880;28;20374;-72
2020/12/04 11:02:55;;;;;;;17.77;8.13;;;;;;;;;;5073964;28;20434;-72
2020/12/04 11:07:53;;;;;;;21.42;10.50;;;;;;;;;;5054176;28;20480;-71
2020/12/04 11:10:20;;;;;;;20.88;9.10;;;;;;;;;;5053635;28;20068;-72
2020/12/04 11:12:46;;;;;;;19.10;9.07;;;;;;;;;;5053970;28;20025;-72
2020/12/04 11:15:12;;;;;;;19.27;8.68;;;;;;;;;;5054055;28;20048;-71
2020/12/04 11:17:39;;;;;;;19.45;10.27;;;;;;;;;;5053838;28;20396;-72
2020/12/04 11:20:05;;;;;;;13.48;7.07;;;;;;;;;;5053630;28;20024;-71
2020/12/04 11:22:33;;;;;;;18.67;9.60;;;;;;;;;;5053552;28;20025;-71
2020/12/04 11:25:00;;;;;;;16.55;7.82;;;;;;;;;;5053745;28;20032;-71
2020/12/04 11:27:26;;;;;;;18.75;9.10;;;;;;;;;;5053395;28;20461;-71
2020/12/04 11:29:52;;;;;;;16.38;8.25;;;;;;;;;;5053648;28;20024;-72
2020/12/04 11:32:18;;;;;;;20.27;9.43;;;;;;;;;;5053242;28;20025;-71
2020/12/04 11:34:44;;;;;;;19.10;8.50;;;;;;;;;;5053435;28;20021;-70
2020/12/04 11:37:13;;;;;;;17.55;8.52;;;;;;;;;;5053349;28;20025;-72
2020/12/04 11:39:40;;;;;;;17.42;8.75;;;;;;;;;;5053171;28;20028;-71
2020/12/04 11:42:10;;;;;;;17.42;7.55;;;;;;;;;;5053251;28;20473;-71
2020/12/04 11:44:37;;;;;;;17.30;8.73;;;;;;;;;;5053092;28;20151;-71
2020/12/04 11:47:03;;;;;;;20.48;9.30;;;;;;;;;;5051867;28;20020;-70
2020/12/04 11:49:29;;;;;;;20.38;9.50;;;;;;;;;;5053148;28;20138;-72
2020/12/04 11:51:56;;;;;;;17.92;8.52;;;;;;;;;;5053066;28;20029;-71
2020/12/04 11:54:22;;;;;;;17.25;7.93;;;;;;;;;;5052427;28;20511;-72
2020/12/04 11:56:50;;;;;;;15.18;7.50;;;;;;;;;;5052565;28;20025;-71
2020/12/04 11:59:17;;;;;;;21.65;8.68;;;;;;;;;;5051483;28;20052;-71
2020/12/04 12:01:43;;;;;;;16.33;7.18;;;;;;;;;;5052658;28;20017;-71
2020/12/04 12:04:12;;;;;;;18.27;8.68;;;;;;;;;;5052529;28;20469;-71
2020/12/04 12:06:38;;;;;;;15.00;7.68;;;;;;;;;;5052738;28;20110;-70
2020/12/04 12:09:04;;;;;;;17.17;8.93;;;;;;;;;;5042920;28;20037;-71
2020/12/04 12:11:30;;;;;;;16.90;8.68;;;;;;;;;;5030395;28;20028;-70
2020/12/04 12:13:56;;;;;;;15.73;8.35;;;;;;;;;;5030156;28;20025;-72
2020/12/04 12:16:22;;;;;;;15.98;7.70;;;;;;;;;;5030020;28;20022;-70
2020/12/04 12:18:48;;;;;;;13.63;6.57;;;;;;;;;;5030093;28;20029;-71
2020/12/04 12:21:14;;;;;;;14.82;8.48;;;;;;;;;;5029766;28;20032;-70
2020/12/04 12:23:40;;;;;;;10.82;5.45;;;;;;;;;;5029899;28;20045;-70
2020/12/04 12:26:07;;;;;;;15.60;7.50;;;;;;;;;;5030151;28;20064;-71
2020/12/04 12:28:33;;;;;;;16.38;8.02;;;;;;;;;;5029862;28;20029;-71
2020/12/04 12:30:59;;;;;;;16.45;8.55;;;;;;;;;;5030236;28;20034;-73
2020/12/04 12:33:26;;;;;;;19.60;8.20;;;;;;;;;;5029829;28;20362;-71
2020/12/04 12:35:52;;;;;;;19.73;9.45;;;;;;;;;;5030389;28;20029;-71
2020/12/04 12:38:18;;;;;;;17.63;8.77;;;;;;;;;;5029810;28;20025;-70
2020/12/04 12:40:44;;;;;;;16.52;8.10;;;;;;;;;;5029812;28;20028;-70
2020/12/04 12:43:10;;;;;;;19.35;7.30;;;;;;;;;;5029744;28;20029;-70
2020/12/04 12:45:39;;;;;;;18.30;8.98;;;;;;;;;;5029448;28;20159;-71
2020/12/04 12:48:05;;;;;;;17.73;8.10;;;;;;;;;;5029688;28;20025;-71
2020/12/04 12:50:31;;;;;;;19.70;9.45;;;;;;;;;;5028682;28;20034;-70
2020/12/04 12:52:57;;;;;;;18.55;10.23;;;;;;;;;;5030093;28;20022;-72
2020/12/04 12:55:23;;;;;;;17.77;9.55;;;;;;;;;;5028581;28;20026;-71
2020/12/04 12:57:49;;;;;;;17.20;8.90;;;;;;;;;;5029539;28;20569;-71
2020/12/04 13:00:15;;;;;;;17.70;8.88;;;;;;;;;;5029663;28;20383;-71
2020/12/04 13:02:41;;;;;;;18.13;8.80;;;;;;;;;;5029939;28;20036;-71
2020/12/04 13:07:52;;;;;;;16.55;8.00;;;;;;;;;;5029584;28;20072;-72
2020/12/04 13:10:18;;;;;;;19.70;10.13;;;;;;;;;;5047120;28;20029;-71
2020/12/04 13:12:45;;;;;;;19.40;10.45;;;;;;;;;;5049545;28;20033;-71
2020/12/04 13:15:11;;;;;;;22.55;8.80;;;;;;;;;;5049569;28;20021;-72
2020/12/04 13:17:38;;;;;;;16.17;8.13;;;;;;;;;;5049485;28;20032;-72
2020/12/04 13:20:04;;;;;;;15.40;7.85;;;;;;;;;;5049190;28;20025;-71
2020/12/04 13:22:30;;;;;;;17.85;9.02;;;;;;;;;;5048035;28;20104;-70
2020/12/04 13:24:56;;;;;;;18.73;9.05;;;;;;;;;;5053149;28;20452;-72
2020/12/04 13:27:22;;;;;;;18.13;9.20;;;;;;;;;;5053281;28;20032;-71
2020/12/04 13:29:48;;;;;;;16.15;7.70;;;;;;;;;;5053069;28;20086;-72
2020/12/04 13:32:14;;;;;;;18.40;8.02;;;;;;;;;;5051450;28;20025;-72
2020/12/04 13:34:40;;;;;;;18.50;9.10;;;;;;;;;;5052964;28;20021;-72
2020/12/04 13:37:07;;;;;;;18.20;8.73;;;;;;;;;;5053071;28;20503;-75
2020/12/04 13:39:33;;;;;;;16.52;8.43;;;;;;;;;;5053057;28;20476;-71
2020/12/04 13:42:00;;;;;;;18.30;8.45;;;;;;;;;;5053160;28;20029;-76
2020/12/04 13:44:27;;;;;;;19.08;9.38;;;;;;;;;;5052728;28;20061;-72
2020/12/04 13:46:53;;;;;;;15.95;8.57;;;;;;;;;;5051643;28;20029;-72
2020/12/04 13:49:19;;;;;;;24.50;11.07;;;;;;;;;;5051382;28;20492;-71
2020/12/04 13:51:45;;;;;;;30.83;12.63;;;;;;;;;;5051496;28;20083;-71
2020/12/04 13:54:11;;;;;;;19.05;9.13;;;;;;;;;;5052535;28;20059;-70
2020/12/04 13:56:38;;;;;;;17.15;8.10;;;;;;;;;;5052162;28;20473;-71
2020/12/04 13:59:05;;;;;;;21.70;8.82;;;;;;;;;;5052359;28;20044;-71
2020/12/04 14:01:31;;;;;;;16.83;8.52;;;;;;;;;;5052591;28;20032;-71
2020/12/04 14:03:57;;;;;;;16.50;8.43;;;;;;;;;;5052550;28;20044;-71
2020/12/04 14:06:23;;;;;;;18.20;10.05;;;;;;;;;;5052463;28;20021;-72
2020/12/04 14:08:50;;;;;;;18.58;8.43;;;;;;;;;;5051421;28;20016;-72
2020/12/04 14:11:17;;;;;;;20.00;9.85;;;;;;;;;;5052360;28;20024;-74
2020/12/04 14:13:44;;;;;;;20.67;10.30;;;;;;;;;;5050927;28;20033;-72
2020/12/04 14:16:10;;;;;;;17.92;9.13;;;;;;;;;;5052074;28;20021;-76
2020/12/04 14:18:37;;;;;;;19.65;9.43;;;;;;;;;;5051917;28;20063;-71
2020/12/04 14:21:07;;;;;;;17.08;9.13;;;;;;;;;;5051627;28;20021;-71
2020/12/04 14:23:33;;;;;;;16.90;8.65;;;;;;;;;;5051971;28;20041;-71
2020/12/04 14:26:00;;;;;;;18.52;8.68;;;;;;;;;;5052259;28;20020;-72
2020/12/04 14:28:26;;;;;;;15.70;8.13;;;;;;;;;;5051879;28;20107;-71
2020/12/04 14:30:53;;;;;;;16.15;8.38;;;;;;;;;;5050939;28;20111;-71